NCAR-RAP Real-Time Weather Data

Output produced by METARs form (14 October 2019  22:50 UTC)
found at http://weather.rap.ucar.edu/surface/
 
KNYC 142151Z AUTO 26007KT 10SM CLR 21/02 A2995 RMK AO2 SLP131 T02060022 $
KNYC 142051Z AUTO VRB03KT 10SM CLR 22/03 A2992 RMK AO2 SLP123 T02170033 56011 $
KNYC 141951Z AUTO 26003KT 10SM CLR 22/05 A2992 RMK AO2 SLP124 T02220050 $
KNYC 141851Z AUTO 26010G15KT 10SM CLR 22/07 A2993 RMK AO2 SLP126 T02170067 $
KNYC 141751Z AUTO 28006KT 10SM CLR 21/08 A2995 RMK AO2 SLP134 T02110078 10211 20150 58023 $
KNYC 141651Z AUTO 10SM CLR 20/10 A2998 RMK AO2 SLP143 T02000100 $
KNYC 141551Z AUTO 10SM CLR 19/11 A3000 RMK AO2 SLP151 T01890106 $
KNYC 141520Z AUTO 00000KT 10SM FEW023 18/11 A3002 RMK AO2 T01780111 $
KNYC 141451Z AUTO VRB04KT 10SM BKN024 18/11 A3002 RMK AO2 SLP158 T01780106 50002 $
KNYC 141351Z AUTO 30005KT 10SM OVC027 17/11 A3003 RMK AO2 SLP161 T01670106 $
KNYC 141251Z AUTO 29004KT 10SM OVC028 16/12 A3003 RMK AO2 SLP160 T01560122 $
KNYC 141214Z AUTO 26004KT 10SM FEW012 OVC027 16/12 A3002 RMK AO2 T01560122 $
KNYC 141151Z AUTO 00000KT 10SM OVC01GW2 16/13 A3002 RMK AO2 SLP156 T01560128 10161 20144 53011 $
KNYC 141051Z AUTO 00000KT 10SM BKN014 OVC024 15/13 A3000 RMK AO2 SLP150 T01500128 $
KNYC 141047Z AUTO 00000KT 10SM BKN014 OVC024 15/13 A3000 RMK AO2 $
KNYC 141027Z AUTO 00000KT 10SM SCT014 OVC024 15/12 A3000 RMK AO2 T01500122 $
KNYC 140951Z AUTO VRB03KT 10SM BKN014 OVC024 15/13 A2999 RMK AO2 SLP145 T01500128 $
KNYC 140929Z AUTO 00000KT 10SM BKN024 14/12 A2999 RMK AO2 T01440122 $
KNYC 140915Z AUTO 11003KT 10SM SCT026 14/12 A2997 RMK AO2 T01440122 $
KNYC 140851Z AUTO 11003KT 10SM FEW016 OVC026 15/12 A2998 RMK AO2 SLP141 T01500122 56016 $
KNYC 140809Z AUTO 00000KT 10SM FEW016 OVC029 16/12 A2998 RMK AO2 T01560117 $
KNYC 140751Z AUTO 28003KT 10SM SCT017 OVC031 16/12 A2998 RMK AO2 SLP144 T01560122 $
KNYC 140734Z AUTO 00000KT 10SM FEW017 OVC030 16/12 A2998 RMK AO2 T01560122 $
KNYC 140651Z AUTO 00000KT 10SM FEW019 OVC026 16/13 A2999 RMK AO2 SLP148 T01610128 $
KNYC 140551Z AUTO 00000KT 10SM OVC028 16/12 A3002 RMK AO2 SLP157 60000 T01610122 10161 20144 58010 $
KNYC 140511Z AUTO 00000KT 10SM OVC029 16/12 A3003 RMK AO2 T01610122 $
KNYC 140451Z AUTO 00000KT 10SM BKN030 OVC045 16/12 A3003 RMK AO2 SLP160 T01610122 401940117 $
KNYC 140351Z AUTO 00000KT 10SM OVC034 16/12 A3005 RMK AO2 SLP166 T01610117 $
KNYC 140251Z AUTO 00000KT 10SM OVC036 16/11 A3005 RMK AO2 RAB02E12B33E42 SLP167 P0000 60000 T01560111 58006 $
KNYC 140151Z AUTO 00000KT 10SM OVC045 16/10 A3006 RMK AO2 SLP172 T01560100 $
KNYC 140051Z AUTO 00000KT 10SM CLR 15/09 A3006 RMK AO2 SLP171 T01500094 $
KNYC 132351Z AUTO VRB03KT 10SM OVC095 16/08 A3007 RMK AO2 SLP174 T01560083 10194 20156 53001 $
KNYC 132251Z AUTO 00000KT 10SM FEW065 FEW090 16/08 A3007 RMK AO2 SLP175 T01560083 $
KNYC 132151Z AUTO 00000KT 10SM CLR 17/08 A3007 RMK AO2 SLP172 T01670078 $
KNYC 132051Z AUTO 00000KT 10SM BKN080 18/06 A3007 RMK AO2 SLP173 T01780061 56012 $
KNYC 131951Z AUTO 06003KT 10SM CLR 18/04 A3008 RMK AO2 SLP176 T01830039 $
KNYC 131851Z AUTO 00000KT 10SM SCT100 19/03 A3009 RMK AO2 SLP180 T01890033 $
KNYC 131751Z AUTO 06004KT 10SM CLR 18/04 A3010 RMK AO2 SLP185 T01780039 10178 20117 56016 $
KNYC 131651Z AUTO 06005KT 10SM CLR 17/05 A3011 RMK AO2 SLP188 T01670050 $
KNYC 131551Z AUTO VRB04KT 10SM FEW090 16/07 A3014 RMK AO2 SLP197 T01610067 $
KNYC 131451Z AUTO VRB03KT 10SM CLR 14/07 A3015 RMK AO2 SLP201 T01440067 51008 $
KNYC 131351Z AUTO 01004KT 10SM CLR 14/08 A3015 RMK AO2 SLP199 T01390078 $
KNYC 131251Z AUTO 00000KT 10SM CLR 13/09 A3014 RMK AO2 SLP198 T01330089 $
KNYC 131151Z AUTO 00000KT 10SM CLR 12/08 A3013 RMK AO2 SLP193 T01220083 10144 20117 53023 $
KNYC 131051Z AUTO 00000KT 10SM CLR 12/08 A3010 RMK AO2 SLP183 T01220083 $
KNYC 130951Z AUTO 30004KT 10SM CLR 12/09 A3008 RMK AO2 SLP177 T01220089 $
KNYC 130851Z AUTO 00000KT 10SM CLR 13/09 A3006 RMK AO2 SLP170 T01280089 53011 $
KNYC 130751Z AUTO 29004KT 10SM CLR 13/09 A3004 RMK AO2 SLP164 T01330089 $
KNYC 130651Z AUTO VRB05KT 10SM CLR 14/09 A3003 RMK AO2 SLP160 T01440094 $
KNYC 130551Z AUTO VRB04KT 10SM CLR 14/09 A3003 RMK AO2 SLP159 T01440094 10183 20144 53007 $
KNYC 130451Z AUTO 28005KT 10SM CLR 16/09 A3002 RMK AO2 SLP156 T01560094 401940128 $
KNYC 130351Z AUTO 00000KT 10SM BKN044 16/09 A3001 RMK AO2 SLP154 T01560094 $
KNYC 130251Z AUTO 27003KT 10SM CLR 16/09 A3001 RMK AO2 SLP152 T01610094 50007 $
KNYC 130151Z AUTO 24004KT 10SM CLR 16/09 A3001 RMK AO2 SLP154 T01610094 $
KNYC 130051Z AUTO VRB03KT 10SM CLR 17/09 A2999 RMK AO2 SLP148 T01720094 $
KNYC 122351Z AUTO 24006KT 10SM FEW110 18/09 A2998 RMK AO2 SLP144 T01830094 10194 20172 53010 $
KNYC 122251Z AUTO 24004KT 10SM BKN110 19/10 A2996 RMK AO2 SLP136 T01890100 $